Elk Bend, Idaho
Current Conditions -  °F | °C
As of 5:55 AM on Thursday 30 Oct 2014 (Local Time) from KSMN Reporting Station
Overcast Overcast  
Wind Chill: 39°   Ceiling: 8000
Heat Index: 39°   Visibility: 10mi
Dew Point: 34°   Wind: 0mph
Humidity: 81%   Direction: NA
Pressure: 30.27"   Gusts: NA
Location:  45.092°N, 113.703°W
Report Text: KSMN 301155Z AUTO 00000KT 10SM OVC080 04/01 A3027 RMK AO1 10040 20020 57003
Loading
Personal Weather Stations






























Interactive Weather Map
Tropical Storm Tracking
New forecast layout! Learn more

10-Day Weather Forecast

Advertisements
Track Severe Weather on mobile